sensor_id;sensor_type;location;lat;lon;timestamp;pressure;altitude;pressure_sealevel;temperature;humidity
77893;BME280;67087;50.094;14.338;2023-02-01T00:02:19;97856.27;;;26.46;30.95
77893;BME280;67087;50.094;14.338;2023-02-01T00:04:44;97872.45;;;26.40;30.99
77893;BME280;67087;50.094;14.338;2023-02-01T00:07:09;97864.88;;;26.23;30.90
77893;BME280;67087;50.094;14.338;2023-02-01T00:09:35;97868.20;;;26.50;30.85
77893;BME280;67087;50.094;14.338;2023-02-01T00:11:59;97865.21;;;26.51;30.77
77893;BME280;67087;50.094;14.338;2023-02-01T00:14:25;97863.59;;;26.49;30.76
77893;BME280;67087;50.094;14.338;2023-02-01T00:16:50;97862.13;;;26.48;30.72
77893;BME280;67087;50.094;14.338;2023-02-01T00:19:15;97851.51;;;26.34;30.88
77893;BME280;67087;50.094;14.338;2023-02-01T00:21:40;97846.10;;;26.13;30.86
77893;BME280;67087;50.094;14.338;2023-02-01T00:24:06;97845.99;;;26.36;30.83
77893;BME280;67087;50.094;14.338;2023-02-01T00:26:32;97854.66;;;26.33;30.85
77893;BME280;67087;50.094;14.338;2023-02-01T00:28:55;97852.76;;;26.37;30.74
77893;BME280;67087;50.094;14.338;2023-02-01T00:31:21;97864.54;;;26.34;30.78
77893;BME280;67087;50.094;14.338;2023-02-01T00:33:47;97863.82;;;26.38;30.72
77893;BME280;67087;50.094;14.338;2023-02-01T00:36:11;97860.42;;;26.40;30.67
77893;BME280;67087;50.094;14.338;2023-02-01T00:38:37;97854.10;;;26.31;30.72
77893;BME280;67087;50.094;14.338;2023-02-01T00:41:03;97863.51;;;26.35;30.64
77893;BME280;67087;50.094;14.338;2023-02-01T00:43:26;97877.00;;;26.38;30.58
77893;BME280;67087;50.094;14.338;2023-02-01T00:45:51;97865.84;;;26.34;30.57
77893;BME280;67087;50.094;14.338;2023-02-01T00:48:16;97860.59;;;26.35;30.54
77893;BME280;67087;50.094;14.338;2023-02-01T00:50:42;97871.75;;;26.31;30.62
77893;BME280;67087;50.094;14.338;2023-02-01T00:53:07;97858.06;;;26.26;30.66
77893;BME280;67087;50.094;14.338;2023-02-01T00:55:32;97861.60;;;26.33;30.52
77893;BME280;67087;50.094;14.338;2023-02-01T00:57:57;97864.60;;;26.28;30.61
77893;BME280;67087;50.094;14.338;2023-02-01T01:00:22;97862.32;;;26.34;30.46
77893;BME280;67087;50.094;14.338;2023-02-01T01:02:47;97866.56;;;26.49;30.56
77893;BME280;67087;50.094;14.338;2023-02-01T01:05:12;97867.61;;;26.27;30.53
77893;BME280;67087;50.094;14.338;2023-02-01T01:07:37;97866.48;;;26.54;30.49
77893;BME280;67087;50.094;14.338;2023-02-01T01:10:03;97867.93;;;26.29;30.49
77893;BME280;67087;50.094;14.338;2023-02-01T01:12:28;97864.87;;;26.27;30.53
77893;BME280;67087;50.094;14.338;2023-02-01T01:14:53;97865.51;;;26.41;30.35
77893;BME280;67087;50.094;14.338;2023-02-01T01:17:18;97864.32;;;26.33;30.43
77893;BME280;67087;50.094;14.338;2023-02-01T01:19:43;97869.93;;;26.36;30.34
77893;BME280;67087;50.094;14.338;2023-02-01T01:22:08;97875.23;;;26.40;30.31
77893;BME280;67087;50.094;14.338;2023-02-01T01:24:33;97879.30;;;26.30;30.40
77893;BME280;67087;50.094;14.338;2023-02-01T01:26:58;97876.69;;;26.28;30.36
77893;BME280;67087;50.094;14.338;2023-02-01T01:29:23;97873.17;;;26.32;30.29
77893;BME280;67087;50.094;14.338;2023-02-01T01:31:49;97869.65;;;26.30;30.24
77893;BME280;67087;50.094;14.338;2023-02-01T01:34:14;97863.50;;;26.55;30.33
77893;BME280;67087;50.094;14.338;2023-02-01T01:36:39;97864.62;;;26.37;30.23
77893;BME280;67087;50.094;14.338;2023-02-01T01:39:05;97864.78;;;26.40;30.08
77893;BME280;67087;50.094;14.338;2023-02-01T01:41:31;97876.74;;;26.30;30.28
77893;BME280;67087;50.094;14.338;2023-02-01T01:43:56;97871.33;;;26.32;30.22
77893;BME280;67087;50.094;14.338;2023-02-01T01:46:21;97875.24;;;26.40;30.04
77893;BME280;67087;50.094;14.338;2023-02-01T01:48:46;97873.78;;;26.43;30.00
77893;BME280;67087;50.094;14.338;2023-02-01T01:51:12;97872.46;;;26.39;30.08
77893;BME280;67087;50.094;14.338;2023-02-01T01:53:40;97877.64;;;26.39;30.03
77893;BME280;67087;50.094;14.338;2023-02-01T01:56:00;97864.41;;;26.43;30.02
77893;BME280;67087;50.094;14.338;2023-02-01T01:58:27;97872.68;;;26.44;29.99
77893;BME280;67087;50.094;14.338;2023-02-01T02:00:51;97873.95;;;26.40;30.08
77893;BME280;67087;50.094;14.338;2023-02-01T02:03:19;97865.97;;;26.45;29.94
77893;BME280;67087;50.094;14.338;2023-02-01T02:05:41;97869.92;;;26.38;30.03
77893;BME280;67087;50.094;14.338;2023-02-01T02:08:06;97870.19;;;26.57;29.81
77893;BME280;67087;50.094;14.338;2023-02-01T02:10:31;97877.12;;;26.46;29.93
77893;BME280;67087;50.094;14.338;2023-02-01T02:12:56;97874.02;;;26.47;29.92
77893;BME280;67087;50.094;14.338;2023-02-01T02:15:21;97869.53;;;26.41;29.95
77893;BME280;67087;50.094;14.338;2023-02-01T02:17:52;97867.00;;;26.51;30.14
77893;BME280;67087;50.094;14.338;2023-02-01T02:20:28;97878.36;;;26.73;29.79
77893;BME280;67087;50.094;14.338;2023-02-01T02:23:02;97883.00;;;26.60;29.82
77893;BME280;67087;50.094;14.338;2023-02-01T02:27:35;97896.57;;;26.87;29.45
77893;BME280;67087;50.094;14.338;2023-02-01T02:30:02;97890.35;;;27.07;29.16
77893;BME280;67087;50.094;14.338;2023-02-01T02:34:46;97896.30;;;26.77;29.46
77893;BME280;67087;50.094;14.338;2023-02-01T02:37:15;97895.81;;;27.02;29.12
77893;BME280;67087;50.094;14.338;2023-02-01T02:39:41;97893.84;;;26.84;29.31
77893;BME280;67087;50.094;14.338;2023-02-01T02:42:02;97908.70;;;26.58;29.56
77893;BME280;67087;50.094;14.338;2023-02-01T02:44:28;97902.63;;;26.49;29.77
77893;BME280;67087;50.094;14.338;2023-02-01T02:46:50;97897.18;;;26.46;29.78
77893;BME280;67087;50.094;14.338;2023-02-01T02:49:18;97894.11;;;26.47;29.74
77893;BME280;67087;50.094;14.338;2023-02-01T02:51:41;97888.77;;;26.43;29.85
77893;BME280;67087;50.094;14.338;2023-02-01T02:54:07;97882.18;;;26.49;29.73
77893;BME280;67087;50.094;14.338;2023-02-01T02:56:29;97879.65;;;26.58;29.64
77893;BME280;67087;50.094;14.338;2023-02-01T02:58:54;97881.74;;;26.90;29.23
77893;BME280;67087;50.094;14.338;2023-02-01T03:01:18;97869.99;;;26.99;29.16
77893;BME280;67087;50.094;14.338;2023-02-01T03:03:44;97874.94;;;27.04;29.12
77893;BME280;67087;50.094;14.338;2023-02-01T03:06:12;97869.32;;;27.04;29.15
77893;BME280;67087;50.094;14.338;2023-02-01T03:08:34;97866.56;;;27.05;29.10
77893;BME280;67087;50.094;14.338;2023-02-01T03:11:01;97865.23;;;27.03;29.05
77893;BME280;67087;50.094;14.338;2023-02-01T03:13:31;97858.52;;;27.03;29.08
77893;BME280;67087;50.094;14.338;2023-02-01T03:15:55;97859.73;;;27.07;29.08
77893;BME280;67087;50.094;14.338;2023-02-01T03:18:16;97863.20;;;26.84;29.00
77893;BME280;67087;50.094;14.338;2023-02-01T03:20:40;97857.59;;;27.01;29.02
77893;BME280;67087;50.094;14.338;2023-02-01T03:23:05;97854.34;;;27.03;29.03
77893;BME280;67087;50.094;14.338;2023-02-01T03:25:32;97852.80;;;27.02;29.07
77893;BME280;67087;50.094;14.338;2023-02-01T03:27:57;97847.83;;;26.95;29.23
77893;BME280;67087;50.094;14.338;2023-02-01T03:30:22;97843.24;;;26.76;29.36
77893;BME280;67087;50.094;14.338;2023-02-01T03:32:48;97835.70;;;26.62;29.46
77893;BME280;67087;50.094;14.338;2023-02-01T03:35:11;97825.69;;;26.41;29.69
77893;BME280;67087;50.094;14.338;2023-02-01T03:37:36;97827.42;;;26.36;29.80
77893;BME280;67087;50.094;14.338;2023-02-01T03:40:06;97833.39;;;26.36;29.80
77893;BME280;67087;50.094;14.338;2023-02-01T03:42:30;97839.79;;;26.38;29.80
77893;BME280;67087;50.094;14.338;2023-02-01T03:44:57;97831.04;;;26.34;29.82
77893;BME280;67087;50.094;14.338;2023-02-01T03:47:18;97825.18;;;26.35;29.82
77893;BME280;67087;50.094;14.338;2023-02-01T03:49:44;97825.37;;;26.39;29.73
77893;BME280;67087;50.094;14.338;2023-02-01T03:52:10;97826.35;;;26.36;29.79
77893;BME280;67087;50.094;14.338;2023-02-01T03:54:32;97820.18;;;26.38;29.71
77893;BME280;67087;50.094;14.338;2023-02-01T03:57:01;97826.33;;;26.34;29.83
77893;BME280;67087;50.094;14.338;2023-02-01T03:59:22;97828.41;;;26.32;29.80
77893;BME280;67087;50.094;14.338;2023-02-01T04:01:47;97829.60;;;26.26;29.85
77893;BME280;67087;50.094;14.338;2023-02-01T04:04:12;97836.16;;;26.49;29.72
77893;BME280;67087;50.094;14.338;2023-02-01T04:06:37;97838.61;;;26.58;29.29
77893;BME280;67087;50.094;14.338;2023-02-01T04:09:03;97844.46;;;26.51;29.39
77893;BME280;67087;50.094;14.338;2023-02-01T04:11:28;97844.67;;;26.37;29.49
77893;BME280;67087;50.094;14.338;2023-02-01T04:13:53;97844.75;;;26.25;29.75
77893;BME280;67087;50.094;14.338;2023-02-01T04:16:18;97841.85;;;26.27;29.75
77893;BME280;67087;50.094;14.338;2023-02-01T04:18:43;97840.70;;;26.30;29.75
77893;BME280;67087;50.094;14.338;2023-02-01T04:21:08;97838.42;;;26.27;29.67
77893;BME280;67087;50.094;14.338;2023-02-01T04:23:33;97834.36;;;26.44;29.42
77893;BME280;67087;50.094;14.338;2023-02-01T04:26:00;97830.03;;;26.59;29.24
77893;BME280;67087;50.094;14.338;2023-02-01T04:28:24;97829.86;;;26.75;29.09
77893;BME280;67087;50.094;14.338;2023-02-01T04:30:49;97833.68;;;26.83;28.97
77893;BME280;67087;50.094;14.338;2023-02-01T04:33:15;97831.84;;;26.85;28.97
77893;BME280;67087;50.094;14.338;2023-02-01T04:35:40;97828.39;;;26.92;28.84
77893;BME280;67087;50.094;14.338;2023-02-01T04:38:06;97815.36;;;26.89;28.88
77893;BME280;67087;50.094;14.338;2023-02-01T04:40:30;97814.18;;;26.88;28.83
77893;BME280;67087;50.094;14.338;2023-02-01T04:42:55;97807.64;;;26.96;28.76
77893;BME280;67087;50.094;14.338;2023-02-01T04:45:20;97793.36;;;26.92;28.71
77893;BME280;67087;50.094;14.338;2023-02-01T04:47:46;97786.22;;;26.93;28.86
77893;BME280;67087;50.094;14.338;2023-02-01T04:50:11;97784.59;;;26.92;28.82
77893;BME280;67087;50.094;14.338;2023-02-01T04:52:36;97781.39;;;26.86;28.85
77893;BME280;67087;50.094;14.338;2023-02-01T04:55:01;97777.39;;;27.12;28.84
77893;BME280;67087;50.094;14.338;2023-02-01T04:57:26;97776.75;;;27.12;28.86
77893;BME280;67087;50.094;14.338;2023-02-01T04:59:51;97772.70;;;27.12;28.88
77893;BME280;67087;50.094;14.338;2023-02-01T05:02:16;97769.81;;;26.50;29.03
77893;BME280;67087;50.094;14.338;2023-02-01T05:04:41;97766.70;;;26.90;28.83
77893;BME280;67087;50.094;14.338;2023-02-01T05:07:06;97771.88;;;26.95;28.72
77893;BME280;67087;50.094;14.338;2023-02-01T05:09:32;97770.12;;;26.92;28.70
77893;BME280;67087;50.094;14.338;2023-02-01T05:11:57;97770.39;;;26.65;28.71
77893;BME280;67087;50.094;14.338;2023-02-01T05:14:22;97771.62;;;27.09;28.74
77893;BME280;67087;50.094;14.338;2023-02-01T05:16:47;97774.86;;;26.89;28.73
77893;BME280;67087;50.094;14.338;2023-02-01T05:19:12;97770.79;;;26.88;28.74
77893;BME280;67087;50.094;14.338;2023-02-01T05:21:37;97774.94;;;27.10;28.82
77893;BME280;67087;50.094;14.338;2023-02-01T05:24:03;97772.87;;;26.87;28.75
77893;BME280;67087;50.094;14.338;2023-02-01T05:26:27;97779.12;;;27.17;28.65
77893;BME280;67087;50.094;14.338;2023-02-01T05:28:53;97774.59;;;26.87;28.88
77893;BME280;67087;50.094;14.338;2023-02-01T05:31:18;97776.80;;;26.92;28.73
77893;BME280;67087;50.094;14.338;2023-02-01T05:33:43;97779.62;;;26.87;28.72
77893;BME280;67087;50.094;14.338;2023-02-01T05:36:08;97781.54;;;26.86;28.74
77893;BME280;67087;50.094;14.338;2023-02-01T05:38:33;97773.58;;;26.66;29.09
77893;BME280;67087;50.094;14.338;2023-02-01T05:40:58;97773.39;;;26.86;29.13
77893;BME280;67087;50.094;14.338;2023-02-01T05:43:23;97770.06;;;26.42;29.32
77893;BME280;67087;50.094;14.338;2023-02-01T05:45:49;97766.22;;;26.32;29.37
77893;BME280;67087;50.094;14.338;2023-02-01T05:48:14;97764.13;;;26.31;29.88
77893;BME280;67087;50.094;14.338;2023-02-01T05:50:39;97755.02;;;27.08;29.47
77893;BME280;67087;50.094;14.338;2023-02-01T05:53:04;97759.60;;;26.83;29.79
77893;BME280;67087;50.094;14.338;2023-02-01T05:55:29;97760.76;;;26.25;29.89
77893;BME280;67087;50.094;14.338;2023-02-01T05:57:54;97760.82;;;26.38;29.82
77893;BME280;67087;50.094;14.338;2023-02-01T06:00:21;97757.23;;;26.27;29.93
77893;BME280;67087;50.094;14.338;2023-02-01T06:02:45;97749.03;;;26.54;29.63
77893;BME280;67087;50.094;14.338;2023-02-01T06:05:10;97751.22;;;26.48;29.66
77893;BME280;67087;50.094;14.338;2023-02-01T06:07:35;97752.06;;;26.42;29.70
77893;BME280;67087;50.094;14.338;2023-02-01T06:10:00;97750.11;;;26.49;29.63
77893;BME280;67087;50.094;14.338;2023-02-01T06:12:25;97753.74;;;26.64;29.79
77893;BME280;67087;50.094;14.338;2023-02-01T06:14:50;97746.69;;;26.42;29.82
77893;BME280;67087;50.094;14.338;2023-02-01T06:17:16;97729.45;;;26.50;29.77
77893;BME280;67087;50.094;14.338;2023-02-01T06:19:41;97727.92;;;26.47;29.86
77893;BME280;67087;50.094;14.338;2023-02-01T06:22:06;97732.36;;;26.59;29.64
77893;BME280;67087;50.094;14.338;2023-02-01T06:24:31;97736.19;;;26.84;29.35
77893;BME280;67087;50.094;14.338;2023-02-01T06:26:56;97734.12;;;26.75;29.49
77893;BME280;67087;50.094;14.338;2023-02-01T06:29:21;97742.90;;;26.76;29.58
77893;BME280;67087;50.094;14.338;2023-02-01T06:31:46;97734.36;;;26.74;29.59
77893;BME280;67087;50.094;14.338;2023-02-01T06:34:11;97743.58;;;26.83;29.56
77893;BME280;67087;50.094;14.338;2023-02-01T06:36:36;97739.00;;;26.78;29.78
77893;BME280;67087;50.094;14.338;2023-02-01T06:39:02;97730.19;;;26.81;29.58
77893;BME280;67087;50.094;14.338;2023-02-01T06:41:27;97727.50;;;26.95;29.35
77893;BME280;67087;50.094;14.338;2023-02-01T06:43:52;97729.15;;;27.01;29.23
77893;BME280;67087;50.094;14.338;2023-02-01T06:46:17;97726.28;;;27.07;29.09
77893;BME280;67087;50.094;14.338;2023-02-01T06:48:42;97715.52;;;27.07;29.03
77893;BME280;67087;50.094;14.338;2023-02-01T06:51:19;97712.80;;;26.78;29.02
77893;BME280;67087;50.094;14.338;2023-02-01T06:53:32;97715.06;;;26.56;29.30
77893;BME280;67087;50.094;14.338;2023-02-01T06:55:59;97710.42;;;26.81;29.21
77893;BME280;67087;50.094;14.338;2023-02-01T06:58:23;97708.24;;;26.77;29.24
77893;BME280;67087;50.094;14.338;2023-02-01T07:00:48;97709.87;;;26.69;29.35
77893;BME280;67087;50.094;14.338;2023-02-01T07:03:13;97721.80;;;26.59;29.41
77893;BME280;67087;50.094;14.338;2023-02-01T07:05:38;97717.35;;;26.98;28.97
77893;BME280;67087;50.094;14.338;2023-02-01T07:08:03;97717.54;;;26.95;28.94
77893;BME280;67087;50.094;14.338;2023-02-01T07:10:28;97709.82;;;26.72;29.20
77893;BME280;67087;50.094;14.338;2023-02-01T07:12:56;97710.54;;;26.52;29.43
77893;BME280;67087;50.094;14.338;2023-02-01T07:15:18;97705.58;;;26.44;29.64
77893;BME280;67087;50.094;14.338;2023-02-01T07:17:43;97704.01;;;26.45;29.55
77893;BME280;67087;50.094;14.338;2023-02-01T07:20:09;97700.20;;;26.51;29.58
77893;BME280;67087;50.094;14.338;2023-02-01T07:22:33;97709.50;;;26.59;29.47
77893;BME280;67087;50.094;14.338;2023-02-01T07:24:59;97706.10;;;26.62;29.55
77893;BME280;67087;50.094;14.338;2023-02-01T07:27:24;97702.76;;;26.66;29.61
77893;BME280;67087;50.094;14.338;2023-02-01T07:29:49;97696.22;;;26.71;29.32
77893;BME280;67087;50.094;14.338;2023-02-01T07:32:14;97698.10;;;26.78;29.28
77893;BME280;67087;50.094;14.338;2023-02-01T07:34:39;97703.84;;;26.77;29.59
77893;BME280;67087;50.094;14.338;2023-02-01T07:37:04;97709.41;;;26.90;29.45
77893;BME280;67087;50.094;14.338;2023-02-01T07:39:29;97712.93;;;26.92;29.43
77893;BME280;67087;50.094;14.338;2023-02-01T07:41:54;97716.02;;;26.90;29.32
77893;BME280;67087;50.094;14.338;2023-02-01T07:44:19;97707.16;;;26.79;29.38
77893;BME280;67087;50.094;14.338;2023-02-01T07:46:45;97703.22;;;26.78;29.34
77893;BME280;67087;50.094;14.338;2023-02-01T07:49:10;97696.80;;;26.78;29.31
77893;BME280;67087;50.094;14.338;2023-02-01T07:51:35;97696.35;;;26.92;29.08
77893;BME280;67087;50.094;14.338;2023-02-01T07:54:00;97692.62;;;26.83;29.14
77893;BME280;67087;50.094;14.338;2023-02-01T07:56:25;97695.55;;;26.83;29.11
77893;BME280;67087;50.094;14.338;2023-02-01T07:58:51;97696.93;;;26.76;29.66
77893;BME280;67087;50.094;14.338;2023-02-01T08:01:16;97692.43;;;26.88;29.40
77893;BME280;67087;50.094;14.338;2023-02-01T08:03:40;97693.79;;;26.78;29.42
77893;BME280;67087;50.094;14.338;2023-02-01T08:06:06;97691.77;;;26.71;29.48
77893;BME280;67087;50.094;14.338;2023-02-01T08:08:31;97692.27;;;26.76;29.44
77893;BME280;67087;50.094;14.338;2023-02-01T08:10:57;97683.37;;;26.63;29.58
77893;BME280;67087;50.094;14.338;2023-02-01T08:13:21;97681.33;;;26.34;29.60
77893;BME280;67087;50.094;14.338;2023-02-01T08:15:46;97679.80;;;26.77;29.50
77893;BME280;67087;50.094;14.338;2023-02-01T08:18:11;97678.55;;;26.69;29.35
77893;BME280;67087;50.094;14.338;2023-02-01T08:20:36;97676.99;;;27.09;29.26
77893;BME280;67087;50.094;14.338;2023-02-01T08:23:01;97672.84;;;26.97;29.41
77893;BME280;67087;50.094;14.338;2023-02-01T08:25:26;97671.93;;;26.74;29.54
77893;BME280;67087;50.094;14.338;2023-02-01T08:27:51;97668.06;;;26.68;29.62
77893;BME280;67087;50.094;14.338;2023-02-01T08:30:17;97659.54;;;26.70;29.57
77893;BME280;67087;50.094;14.338;2023-02-01T08:32:42;97668.37;;;26.89;29.32
77893;BME280;67087;50.094;14.338;2023-02-01T08:35:08;97674.70;;;26.81;29.45
77893;BME280;67087;50.094;14.338;2023-02-01T08:37:32;97674.19;;;26.92;29.27
77893;BME280;67087;50.094;14.338;2023-02-01T08:39:57;97676.01;;;27.04;29.26
77893;BME280;67087;50.094;14.338;2023-02-01T08:42:22;97680.62;;;26.77;29.70
77893;BME280;67087;50.094;14.338;2023-02-01T08:44:47;97677.26;;;26.99;29.33
77893;BME280;67087;50.094;14.338;2023-02-01T08:47:12;97674.47;;;26.88;29.48
77893;BME280;67087;50.094;14.338;2023-02-01T08:49:37;97676.09;;;26.75;29.60
77893;BME280;67087;50.094;14.338;2023-02-01T08:52:03;97676.43;;;26.77;29.53
77893;BME280;67087;50.094;14.338;2023-02-01T08:54:28;97675.98;;;26.68;29.57
77893;BME280;67087;50.094;14.338;2023-02-01T08:56:53;97668.46;;;26.77;29.40
77893;BME280;67087;50.094;14.338;2023-02-01T08:59:18;97660.94;;;26.70;29.43
77893;BME280;67087;50.094;14.338;2023-02-01T09:01:43;97662.07;;;26.97;29.18
77893;BME280;67087;50.094;14.338;2023-02-01T09:04:08;97669.96;;;26.72;29.40
77893;BME280;67087;50.094;14.338;2023-02-01T09:06:33;97667.32;;;26.71;29.33
77893;BME280;67087;50.094;14.338;2023-02-01T09:08:59;97664.33;;;26.78;29.24
77893;BME280;67087;50.094;14.338;2023-02-01T09:11:24;97664.86;;;26.67;29.38
77893;BME280;67087;50.094;14.338;2023-02-01T09:13:50;97660.97;;;26.57;29.52
77893;BME280;67087;50.094;14.338;2023-02-01T09:16:14;97657.43;;;26.59;29.51
77893;BME280;67087;50.094;14.338;2023-02-01T09:18:39;97658.69;;;26.60;29.40
77893;BME280;67087;50.094;14.338;2023-02-01T09:21:05;97669.82;;;26.62;29.37
77893;BME280;67087;50.094;14.338;2023-02-01T09:23:29;97660.04;;;26.57;29.51
77893;BME280;67087;50.094;14.338;2023-02-01T09:25:58;97654.96;;;26.64;29.42
77893;BME280;67087;50.094;14.338;2023-02-01T09:28:20;97662.99;;;26.58;29.51
77893;BME280;67087;50.094;14.338;2023-02-01T09:30:45;97658.33;;;26.31;29.60
77893;BME280;67087;50.094;14.338;2023-02-01T09:33:10;97654.84;;;26.52;29.59
77893;BME280;67087;50.094;14.338;2023-02-01T09:35:35;97652.33;;;26.69;29.40
77893;BME280;67087;50.094;14.338;2023-02-01T09:38:00;97647.14;;;26.74;29.34
77893;BME280;67087;50.094;14.338;2023-02-01T09:40:26;97654.26;;;26.76;29.32
77893;BME280;67087;50.094;14.338;2023-02-01T09:43:07;97659.74;;;26.64;29.48
77893;BME280;67087;50.094;14.338;2023-02-01T09:45:21;97651.30;;;26.65;29.47
77893;BME280;67087;50.094;14.338;2023-02-01T09:47:46;97647.42;;;26.74;29.38
77893;BME280;67087;50.094;14.338;2023-02-01T09:50:11;97645.77;;;26.74;29.44
77893;BME280;67087;50.094;14.338;2023-02-01T09:52:36;97647.06;;;26.88;29.34
77893;BME280;67087;50.094;14.338;2023-02-01T09:55:00;97647.52;;;26.87;29.40
77893;BME280;67087;50.094;14.338;2023-02-01T09:57:24;97651.15;;;26.66;29.41
77893;BME280;67087;50.094;14.338;2023-02-01T09:59:52;97647.89;;;26.92;29.47
77893;BME280;67087;50.094;14.338;2023-02-01T10:02:14;97655.46;;;26.99;29.52
77893;BME280;67087;50.094;14.338;2023-02-01T10:04:37;97660.13;;;26.89;29.54
77893;BME280;67087;50.094;14.338;2023-02-01T10:07:12;97666.30;;;27.08;29.68
77893;BME280;67087;50.094;14.338;2023-02-01T10:09:42;97668.68;;;27.09;29.80
77893;BME280;67087;50.094;14.338;2023-02-01T10:12:04;97668.14;;;27.12;29.87
77893;BME280;67087;50.094;14.338;2023-02-01T10:14:34;97685.56;;;26.94;30.04
77893;BME280;67087;50.094;14.338;2023-02-01T10:16:48;97675.54;;;26.96;30.17
77893;BME280;67087;50.094;14.338;2023-02-01T10:19:20;97675.75;;;26.76;30.10
77893;BME280;67087;50.094;14.338;2023-02-01T10:21:41;97672.38;;;27.32;30.10
77893;BME280;67087;50.094;14.338;2023-02-01T10:24:07;97678.45;;;26.91;30.15
77893;BME280;67087;50.094;14.338;2023-02-01T10:26:24;97677.37;;;27.28;30.63
77893;BME280;67087;50.094;14.338;2023-02-01T10:28:49;97675.35;;;27.31;30.56
77893;BME280;67087;50.094;14.338;2023-02-01T10:31:13;97673.26;;;27.76;30.29
77893;BME280;67087;50.094;14.338;2023-02-01T10:33:42;97664.46;;;27.81;29.90
77893;BME280;67087;50.094;14.338;2023-02-01T10:36:10;97653.93;;;27.97;29.59
77893;BME280;67087;50.094;14.338;2023-02-01T10:38:29;97653.60;;;28.10;29.36
77893;BME280;67087;50.094;14.338;2023-02-01T10:40:55;97642.68;;;28.12;29.24
77893;BME280;67087;50.094;14.338;2023-02-01T10:43:18;97643.44;;;28.10;29.14
77893;BME280;67087;50.094;14.338;2023-02-01T10:45:43;97641.57;;;28.02;29.12
77893;BME280;67087;50.094;14.338;2023-02-01T10:48:08;97643.27;;;27.89;29.16
77893;BME280;67087;50.094;14.338;2023-02-01T10:50:35;97641.35;;;28.16;29.01
77893;BME280;67087;50.094;14.338;2023-02-01T10:53:02;97649.01;;;27.79;29.04
77893;BME280;67087;50.094;14.338;2023-02-01T10:55:30;97653.05;;;27.61;29.09
77893;BME280;67087;50.094;14.338;2023-02-01T10:57:55;97645.87;;;27.38;29.19
77893;BME280;67087;50.094;14.338;2023-02-01T11:00:19;97651.82;;;27.49;29.24
77893;BME280;67087;50.094;14.338;2023-02-01T11:02:39;97661.93;;;27.08;29.30
77893;BME280;67087;50.094;14.338;2023-02-01T11:05:07;97656.84;;;27.32;29.47
77893;BME280;67087;50.094;14.338;2023-02-01T11:07:29;97657.19;;;27.05;29.40
77893;BME280;67087;50.094;14.338;2023-02-01T11:09:55;97653.85;;;27.22;29.41
77893;BME280;67087;50.094;14.338;2023-02-01T11:12:25;97652.21;;;26.86;29.47
77893;BME280;67087;50.094;14.338;2023-02-01T11:14:47;97659.08;;;27.08;29.47
77893;BME280;67087;50.094;14.338;2023-02-01T11:17:17;97651.13;;;26.87;29.34
77893;BME280;67087;50.094;14.338;2023-02-01T11:19:35;97646.62;;;26.82;29.32
77893;BME280;67087;50.094;14.338;2023-02-01T11:22:00;97659.19;;;26.59;29.30
77893;BME280;67087;50.094;14.338;2023-02-01T11:24:27;97660.18;;;26.79;29.42
77893;BME280;67087;50.094;14.338;2023-02-01T11:26:51;97654.58;;;27.25;29.35
77893;BME280;67087;50.094;14.338;2023-02-01T11:29:17;97653.55;;;26.82;29.46
77893;BME280;67087;50.094;14.338;2023-02-01T11:31:41;97656.87;;;27.01;29.54
77893;BME280;67087;50.094;14.338;2023-02-01T11:34:08;97649.24;;;26.71;29.70
77893;BME280;67087;50.094;14.338;2023-02-01T11:36:32;97646.08;;;26.77;29.60
77893;BME280;67087;50.094;14.338;2023-02-01T11:39:14;97656.73;;;26.75;29.68
77893;BME280;67087;50.094;14.338;2023-02-01T11:41:22;97658.03;;;26.92;29.91
77893;BME280;67087;50.094;14.338;2023-02-01T11:43:52;97659.54;;;26.71;29.96
77893;BME280;67087;50.094;14.338;2023-02-01T11:46:18;97675.12;;;26.91;30.19
77893;BME280;67087;50.094;14.338;2023-02-01T11:48:36;97677.71;;;27.09;30.59
77893;BME280;67087;50.094;14.338;2023-02-01T11:51:15;97673.05;;;26.86;30.86
77893;BME280;67087;50.094;14.338;2023-02-01T11:53:37;97664.05;;;27.19;31.14
77893;BME280;67087;50.094;14.338;2023-02-01T11:55:58;97662.45;;;27.04;31.45
77893;BME280;67087;50.094;14.338;2023-02-01T11:58:29;97662.56;;;27.25;33.16
77893;BME280;67087;50.094;14.338;2023-02-01T12:00:55;97675.47;;;27.32;32.25
77893;BME280;67087;50.094;14.338;2023-02-01T12:05:41;97661.72;;;27.53;31.21
77893;BME280;67087;50.094;14.338;2023-02-01T12:08:09;97652.34;;;27.52;30.89
77893;BME280;67087;50.094;14.338;2023-02-01T12:10:30;97664.13;;;27.56;30.60
77893;BME280;67087;50.094;14.338;2023-02-01T12:12:53;97663.64;;;27.37;30.49
77893;BME280;67087;50.094;14.338;2023-02-01T12:15:22;97657.98;;;27.21;30.33
77893;BME280;67087;50.094;14.338;2023-02-01T12:17:52;97662.57;;;27.35;30.19
77893;BME280;67087;50.094;14.338;2023-02-01T12:20:18;97679.11;;;27.08;30.17
77893;BME280;67087;50.094;14.338;2023-02-01T12:22:35;97663.69;;;27.32;30.05
77893;BME280;67087;50.094;14.338;2023-02-01T12:25:06;97657.98;;;27.26;29.97
77893;BME280;67087;50.094;14.338;2023-02-01T12:29:57;97646.41;;;27.21;29.78
77893;BME280;67087;50.094;14.338;2023-02-01T12:32:16;97639.57;;;26.98;29.59
77893;BME280;67087;50.094;14.338;2023-02-01T12:37:05;97637.54;;;27.32;29.48
77893;BME280;67087;50.094;14.338;2023-02-01T12:39:29;97644.10;;;27.08;29.29
77893;BME280;67087;50.094;14.338;2023-02-01T12:41:53;97651.31;;;27.39;29.23
77893;BME280;67087;50.094;14.338;2023-02-01T12:44:24;97647.90;;;27.04;29.64
77893;BME280;67087;50.094;14.338;2023-02-01T12:46:41;97648.13;;;27.03;29.33
77893;BME280;67087;50.094;14.338;2023-02-01T12:49:08;97659.86;;;26.91;29.47
77893;BME280;67087;50.094;14.338;2023-02-01T12:51:34;97657.21;;;27.08;29.56